createdAt,value
2022-08-23T00:00:20.250Z,16.56
2022-08-23T00:03:38.234Z,16.58
2022-08-23T00:06:41.222Z,16.62
2022-08-23T00:09:43.444Z,16.63
2022-08-23T00:12:46.940Z,16.64
2022-08-23T00:15:48.776Z,16.63
2022-08-23T00:18:51.162Z,16.62
2022-08-23T00:21:54.912Z,16.62
2022-08-23T00:24:57.107Z,16.60
2022-08-23T00:27:59.538Z,16.58
2022-08-23T00:31:01.442Z,16.54
2022-08-23T00:34:04.147Z,16.48
2022-08-23T00:37:07.744Z,16.46
2022-08-23T00:40:11.677Z,16.46
2022-08-23T00:43:34.450Z,16.48
2022-08-23T00:47:05.346Z,16.49
2022-08-23T00:50:23.320Z,16.49
2022-08-23T00:53:30.236Z,16.49
2022-08-23T00:56:34.165Z,16.50
2022-08-23T00:59:36.306Z,16.51
2022-08-23T01:02:38.605Z,16.52
2022-08-23T01:06:13.001Z,16.54
2022-08-23T01:09:20.388Z,16.55
2022-08-23T01:12:30.434Z,16.56
2022-08-23T01:15:56.615Z,16.56
2022-08-23T01:18:58.339Z,16.56
2022-08-23T01:22:28.277Z,16.56
2022-08-23T01:25:32.013Z,16.56
2022-08-23T01:28:34.404Z,16.57
2022-08-23T01:31:36.660Z,16.59
2022-08-23T01:34:44.806Z,16.58
2022-08-23T01:37:53.568Z,16.56
2022-08-23T01:40:55.352Z,16.56
2022-08-23T01:43:57.958Z,16.56
2022-08-23T01:46:59.692Z,16.57
2022-08-23T01:50:01.767Z,16.57
2022-08-23T01:53:04.722Z,16.54
2022-08-23T01:56:07.534Z,16.52
2022-08-23T01:59:10.837Z,16.51
2022-08-23T02:02:12.741Z,16.51
2022-08-23T02:05:18.370Z,16.49
2022-08-23T02:08:40.161Z,16.47
2022-08-23T02:11:42.861Z,16.47
2022-08-23T02:14:44.575Z,16.51
2022-08-23T02:17:49.620Z,16.55
2022-08-23T02:20:53.556Z,16.60
2022-08-23T02:23:55.425Z,16.65
2022-08-23T02:27:01.865Z,16.69
2022-08-23T02:30:05.192Z,16.71
2022-08-23T02:33:07.208Z,16.74
2022-08-23T02:36:09.417Z,16.76
2022-08-23T02:39:12.911Z,16.77
2022-08-23T02:42:15.099Z,16.79
2022-08-23T02:45:17.620Z,16.80
2022-08-23T02:48:20.445Z,16.83
2022-08-23T02:51:22.942Z,16.84
2022-08-23T02:54:24.956Z,16.82
2022-08-23T02:57:27.373Z,16.80
2022-08-23T03:00:32.496Z,16.78
2022-08-23T03:03:34.670Z,16.77
2022-08-23T03:06:39.880Z,16.77
2022-08-23T03:09:41.632Z,16.77
2022-08-23T03:12:43.452Z,16.76
2022-08-23T03:15:45.376Z,16.78
2022-08-23T03:18:48.450Z,16.79
2022-08-23T03:21:50.469Z,16.80
2022-08-23T03:24:52.647Z,16.81
2022-08-23T03:27:54.978Z,16.82
2022-08-23T03:30:57.411Z,16.82
2022-08-23T03:33:59.241Z,16.83
2022-08-23T03:37:01.111Z,16.84
2022-08-23T03:40:05.422Z,16.85
2022-08-23T03:43:07.302Z,16.85
2022-08-23T03:46:09.245Z,16.85
2022-08-23T03:49:11.325Z,16.85
2022-08-23T03:52:13.552Z,16.85
2022-08-23T03:55:16.198Z,16.86
2022-08-23T03:58:18.192Z,16.89
2022-08-23T04:01:22.434Z,16.91
2022-08-23T04:04:25.949Z,16.93
2022-08-23T04:07:28.319Z,16.96
2022-08-23T04:10:30.181Z,17.00
2022-08-23T04:13:32.018Z,17.03
2022-08-23T04:16:37.756Z,17.06
2022-08-23T04:19:39.625Z,17.09
2022-08-23T04:22:41.362Z,17.14
2022-08-23T04:25:45.956Z,17.16
2022-08-23T04:28:47.777Z,17.19
2022-08-23T04:31:49.466Z,17.23
2022-08-23T04:34:51.629Z,17.25
2022-08-23T04:37:53.928Z,17.28
2022-08-23T04:41:15.178Z,17.30
2022-08-23T04:44:17.386Z,17.32
2022-08-23T04:47:20.532Z,17.34
2022-08-23T04:50:22.364Z,17.37
2022-08-23T04:53:24.105Z,17.40
2022-08-23T04:56:25.855Z,17.41
2022-08-23T04:59:27.866Z,17.43
2022-08-23T05:02:29.657Z,17.46
2022-08-23T05:05:31.371Z,17.49
2022-08-23T05:08:33.626Z,17.52
2022-08-23T05:11:35.449Z,17.56
2022-08-23T05:14:37.428Z,17.59
2022-08-23T05:17:39.561Z,17.66
2022-08-23T05:20:42.014Z,17.70
2022-08-23T05:23:43.902Z,17.76
2022-08-23T05:26:52.608Z,17.83
2022-08-23T05:29:54.526Z,17.87
2022-08-23T05:32:56.327Z,17.91
2022-08-23T05:35:58.835Z,17.95
2022-08-23T05:39:00.671Z,18.03
2022-08-23T05:42:02.453Z,18.14
2022-08-23T05:45:06.159Z,18.25
2022-08-23T05:48:08.249Z,18.39
2022-08-23T05:51:19.722Z,18.50
2022-08-23T05:54:21.682Z,18.73
2022-08-23T05:57:23.725Z,19.04
2022-08-23T06:00:25.680Z,19.34
2022-08-23T06:03:40.071Z,19.55
2022-08-23T06:06:43.039Z,19.55
2022-08-23T06:09:45.333Z,19.60
2022-08-23T06:12:47.785Z,19.47
2022-08-23T06:15:49.779Z,19.34
2022-08-23T06:18:52.254Z,19.30
2022-08-23T06:21:55.377Z,19.27
2022-08-23T06:24:57.570Z,19.21
2022-08-23T06:27:59.676Z,19.14
2022-08-23T06:31:02.233Z,19.08
2022-08-23T06:34:07.530Z,19.04
2022-08-23T06:37:17.377Z,19.06
2022-08-23T06:40:20.034Z,19.12
2022-08-23T06:43:26.405Z,19.15
2022-08-23T06:46:30.048Z,19.18
2022-08-23T06:49:32.652Z,19.20
2022-08-23T06:52:34.377Z,19.19
2022-08-23T06:55:36.196Z,19.25
2022-08-23T06:58:37.898Z,19.31
2022-08-23T07:01:50.094Z,19.34
2022-08-23T07:04:54.279Z,19.34
2022-08-23T07:07:56.253Z,19.41
2022-08-23T07:10:58.011Z,19.52
2022-08-23T07:14:01.110Z,19.67
2022-08-23T07:17:03.979Z,19.74
2022-08-23T07:20:07.074Z,19.78
2022-08-23T07:23:09.050Z,19.87
2022-08-23T07:26:13.114Z,19.91
2022-08-23T07:29:16.204Z,20.04
2022-08-23T07:32:18.768Z,20.19
2022-08-23T07:35:21.674Z,20.29
2022-08-23T07:38:23.755Z,20.33
2022-08-23T07:41:33.517Z,20.36
2022-08-23T07:44:35.193Z,20.38
2022-08-23T07:47:37.058Z,20.38
2022-08-23T07:50:56.059Z,20.42
2022-08-23T07:54:02.614Z,20.49
2022-08-23T07:57:04.574Z,20.56
2022-08-23T08:00:08.164Z,20.66
2022-08-23T08:03:12.556Z,20.69
2022-08-23T08:06:18.177Z,20.68
2022-08-23T08:09:20.410Z,20.71
2022-08-23T08:12:23.222Z,20.74
2022-08-23T08:15:25.748Z,20.80
2022-08-23T08:18:27.550Z,20.91
2022-08-23T08:21:29.805Z,21.04
2022-08-23T08:24:31.658Z,21.14
2022-08-23T08:27:34.650Z,21.43
2022-08-23T08:30:37.776Z,21.67
2022-08-23T08:33:39.814Z,21.83
2022-08-23T08:36:47.182Z,21.86
2022-08-23T08:39:49.355Z,21.89
2022-08-23T08:42:54.482Z,22.08
2022-08-23T08:46:24.305Z,22.21
2022-08-23T08:49:45.712Z,22.26
2022-08-23T08:52:52.030Z,22.67
2022-08-23T08:55:57.878Z,23.00
2022-08-23T08:59:06.635Z,23.22
2022-08-23T09:02:32.081Z,23.43
2022-08-23T09:05:38.185Z,23.85
2022-08-23T09:08:49.890Z,23.94
2022-08-23T09:12:29.655Z,24.04
2022-08-23T09:16:00.555Z,24.24
2022-08-23T09:19:03.746Z,24.59
2022-08-23T09:22:14.481Z,25.23
2022-08-23T09:25:17.122Z,25.27
2022-08-23T09:28:19.409Z,25.07
2022-08-23T09:31:58.617Z,25.29
2022-08-23T09:35:12.162Z,25.27
2022-08-23T09:38:14.124Z,25.00
2022-08-23T09:41:20.337Z,24.82
2022-08-23T09:44:41.514Z,24.94
2022-08-23T09:47:44.861Z,24.77
2022-08-23T09:50:54.584Z,24.83
2022-08-23T09:54:22.187Z,24.95
2022-08-23T09:57:28.085Z,25.06
2022-08-23T10:00:34.266Z,25.09
2022-08-23T10:03:36.646Z,25.12
2022-08-23T10:06:39.851Z,25.18
2022-08-23T10:09:41.706Z,25.34
2022-08-23T10:12:43.700Z,25.58
2022-08-23T10:15:54.566Z,25.86
2022-08-23T10:19:20.296Z,26.13
2022-08-23T10:22:26.474Z,26.44
2022-08-23T10:25:40.531Z,27.54
2022-08-23T10:29:18.139Z,28.71
2022-08-23T10:32:32.174Z,29.15
2022-08-23T10:35:42.661Z,28.50
2022-08-23T10:38:50.801Z,28.16
2022-08-23T10:42:04.605Z,28.05
2022-08-23T10:45:17.080Z,27.75
2022-08-23T10:48:29.859Z,27.72
2022-08-23T10:51:40.517Z,28.17
2022-08-23T10:55:06.144Z,28.37
2022-08-23T10:58:13.314Z,28.87
2022-08-23T11:01:19.539Z,29.69
2022-08-23T11:04:39.274Z,30.69
2022-08-23T11:07:42.909Z,31.36
2022-08-23T11:10:56.480Z,31.59
2022-08-23T11:13:59.415Z,31.74
2022-08-23T11:17:07.947Z,31.12
2022-08-23T11:20:12.972Z,30.65
2022-08-23T11:23:17.886Z,30.28
2022-08-23T11:26:22.715Z,30.19
2022-08-23T11:29:24.648Z,30.40
2022-08-23T11:32:38.718Z,30.32
2022-08-23T11:35:44.526Z,30.46
2022-08-23T11:38:48.997Z,30.94
2022-08-23T11:41:53.972Z,31.34
2022-08-23T11:44:55.873Z,31.36
2022-08-23T11:48:19.583Z,31.25
2022-08-23T11:51:33.371Z,31.65
2022-08-23T11:54:46.650Z,31.72
2022-08-23T11:58:12.402Z,31.82
2022-08-23T12:01:14.602Z,31.56
2022-08-23T12:04:36.173Z,31.39
2022-08-23T12:07:47.842Z,31.63
2022-08-23T12:10:50.863Z,30.94
2022-08-23T12:13:55.554Z,30.33
2022-08-23T12:17:04.108Z,30.17
2022-08-23T12:20:16.747Z,30.35
2022-08-23T12:23:20.963Z,30.40
2022-08-23T12:26:38.609Z,30.39
2022-08-23T12:29:58.931Z,30.19
2022-08-23T12:33:05.799Z,29.90
2022-08-23T12:36:45.458Z,29.88
2022-08-23T12:39:51.266Z,30.01
2022-08-23T12:43:03.724Z,30.07
2022-08-23T12:46:06.892Z,30.10
2022-08-23T12:49:13.488Z,30.18
2022-08-23T12:52:16.794Z,30.53
2022-08-23T12:55:20.241Z,30.49
2022-08-23T12:58:31.722Z,30.80
2022-08-23T13:01:38.562Z,30.97
2022-08-23T13:04:40.809Z,30.93
2022-08-23T13:07:42.850Z,31.04
2022-08-23T13:10:46.284Z,31.17
2022-08-23T13:13:48.202Z,31.20
2022-08-23T13:16:50.479Z,31.32
2022-08-23T13:20:01.115Z,31.41
2022-08-23T13:23:09.494Z,31.57
2022-08-23T13:26:27.551Z,31.79
2022-08-23T13:29:29.340Z,31.89
2022-08-23T13:33:09.566Z,32.00
2022-08-23T13:36:17.995Z,31.98
2022-08-23T13:39:23.085Z,31.80
2022-08-23T13:42:42.443Z,31.67
2022-08-23T13:45:50.076Z,31.43
2022-08-23T13:48:54.898Z,30.90
2022-08-23T13:52:18.370Z,30.33
2022-08-23T13:55:21.850Z,30.31
2022-08-23T13:58:32.470Z,30.28
2022-08-23T14:01:34.755Z,30.20
2022-08-23T14:04:36.460Z,29.83
2022-08-23T14:07:38.366Z,29.50
2022-08-23T14:10:40.332Z,29.44
2022-08-23T14:13:45.219Z,29.51
2022-08-23T14:16:47.034Z,29.50
2022-08-23T14:23:12.057Z,29.01
2022-08-23T14:26:17.841Z,28.97
2022-08-23T14:29:22.478Z,28.84
2022-08-23T14:32:24.596Z,28.86
2022-08-23T14:35:28.465Z,29.00
2022-08-23T14:38:31.713Z,29.15
2022-08-23T14:41:33.689Z,29.20
2022-08-23T14:44:36.516Z,28.94
2022-08-23T14:47:39.447Z,28.68
2022-08-23T14:50:41.330Z,28.37
2022-08-23T14:53:43.106Z,28.08
2022-08-23T14:56:44.975Z,27.91
2022-08-23T14:59:46.717Z,27.78
2022-08-23T15:02:50.415Z,27.75
2022-08-23T15:05:52.971Z,27.66
2022-08-23T15:08:54.789Z,27.27
2022-08-23T15:15:21.771Z,27.13
2022-08-23T15:18:25.146Z,27.25
2022-08-23T15:21:27.234Z,27.35
2022-08-23T15:24:29.453Z,27.46
2022-08-23T15:27:31.452Z,27.58
2022-08-23T15:30:33.596Z,27.58
2022-08-23T15:33:36.414Z,27.56
2022-08-23T15:36:41.548Z,27.47
2022-08-23T15:39:43.641Z,27.35
2022-08-23T15:42:45.414Z,27.16
2022-08-23T15:45:48.551Z,27.02
2022-08-23T15:49:06.386Z,26.93
2022-08-23T15:52:08.190Z,26.82
2022-08-23T15:55:10.565Z,26.77
2022-08-23T15:58:19.786Z,26.68
2022-08-23T16:01:24.675Z,26.57
2022-08-23T16:04:26.736Z,26.34
2022-08-23T16:07:36.912Z,26.07
2022-08-23T16:10:39.069Z,25.88
2022-08-23T16:13:42.904Z,25.67
2022-08-23T16:16:48.534Z,25.50
2022-08-23T16:19:50.360Z,25.37
2022-08-23T16:22:53.119Z,25.22
2022-08-23T16:25:59.109Z,25.13
2022-08-23T16:29:06.041Z,25.00
2022-08-23T16:32:08.426Z,24.89
2022-08-23T16:35:10.685Z,24.76
2022-08-23T16:38:12.501Z,24.59
2022-08-23T16:41:14.277Z,24.45
2022-08-23T16:44:15.992Z,24.36
2022-08-23T16:47:18.392Z,24.29
2022-08-23T16:50:20.190Z,24.20
2022-08-23T16:53:22.145Z,24.14
2022-08-23T16:56:23.957Z,24.09
2022-08-23T16:59:25.815Z,24.06
2022-08-23T17:02:31.838Z,24.03
2022-08-23T17:05:33.755Z,23.98
2022-08-23T17:08:35.854Z,23.90
2022-08-23T17:11:40.075Z,23.80
2022-08-23T17:14:42.253Z,23.67
2022-08-23T17:17:44.262Z,23.55
2022-08-23T17:20:46.516Z,23.48
2022-08-23T17:23:48.507Z,23.40
2022-08-23T17:26:51.165Z,23.34
2022-08-23T17:29:52.798Z,23.25
2022-08-23T17:32:57.243Z,23.12
2022-08-23T17:35:58.959Z,22.96
2022-08-23T17:39:02.138Z,22.77
2022-08-23T17:42:04.137Z,22.64
2022-08-23T17:45:08.229Z,22.59
2022-08-23T17:48:11.459Z,22.55
2022-08-23T17:51:13.247Z,22.51
2022-08-23T17:54:16.030Z,22.45
2022-08-23T17:57:18.569Z,22.35
2022-08-23T18:00:20.714Z,22.27
2022-08-23T18:03:23.282Z,22.23
2022-08-23T18:06:25.618Z,22.13
2022-08-23T18:09:27.557Z,22.07
2022-08-23T18:12:29.398Z,22.05
2022-08-23T18:15:31.935Z,22.02
2022-08-23T18:18:33.944Z,22.01
2022-08-23T18:21:37.702Z,21.97
2022-08-23T18:24:39.536Z,21.94
2022-08-23T18:27:59.837Z,21.89
2022-08-23T18:31:03.888Z,21.83
2022-08-23T18:34:05.766Z,21.78
2022-08-23T18:37:07.809Z,21.70
2022-08-23T18:40:10.543Z,21.61
2022-08-23T18:43:21.035Z,21.54
2022-08-23T18:46:23.354Z,21.47
2022-08-23T18:49:25.219Z,21.43
2022-08-23T18:52:29.174Z,21.39
2022-08-23T18:55:33.574Z,21.36
2022-08-23T18:58:35.725Z,21.34
2022-08-23T19:01:40.678Z,21.38
2022-08-23T19:04:42.738Z,21.37
2022-08-23T19:07:44.586Z,21.30
2022-08-23T19:10:47.508Z,21.35
2022-08-23T19:13:51.243Z,21.41
2022-08-23T19:16:53.776Z,21.44
2022-08-23T19:19:55.547Z,21.44
2022-08-23T19:22:57.531Z,21.41
2022-08-23T19:26:00.545Z,21.38
2022-08-23T19:29:06.245Z,21.35
2022-08-23T19:32:08.155Z,21.29
2022-08-23T19:35:10.604Z,21.24
2022-08-23T19:38:14.456Z,21.17
2022-08-23T19:41:16.401Z,21.12
2022-08-23T19:44:18.648Z,21.09
2022-08-23T19:47:23.625Z,21.08
2022-08-23T19:50:30.706Z,21.05
2022-08-23T19:53:32.743Z,21.01
2022-08-23T19:56:41.585Z,21.02
2022-08-23T19:59:43.474Z,21.00
2022-08-23T20:02:45.248Z,20.99
2022-08-23T20:05:47.301Z,20.97
2022-08-23T20:08:52.365Z,20.96
2022-08-23T20:11:54.108Z,20.97
2022-08-23T20:14:57.109Z,20.98
2022-08-23T20:17:58.965Z,21.01
2022-08-23T20:21:01.096Z,21.04
2022-08-23T20:24:05.720Z,21.05
2022-08-23T20:27:07.732Z,21.06
2022-08-23T20:30:14.808Z,21.07
2022-08-23T20:33:16.605Z,21.07
2022-08-23T20:36:20.667Z,21.07
2022-08-23T20:39:24.158Z,21.06
2022-08-23T20:42:26.663Z,21.08
2022-08-23T20:45:29.190Z,21.09
2022-08-23T20:48:31.248Z,21.09
2022-08-23T20:51:36.522Z,21.12
2022-08-23T20:54:39.045Z,21.15
2022-08-23T20:57:40.756Z,21.12
2022-08-23T21:00:42.634Z,21.02
2022-08-23T21:03:44.465Z,20.91
2022-08-23T21:06:48.834Z,20.79
2022-08-23T21:09:51.020Z,20.70
2022-08-23T21:12:53.230Z,20.61
2022-08-23T21:15:55.072Z,20.57
2022-08-23T21:18:57.021Z,20.56
2022-08-23T21:21:58.872Z,20.48
2022-08-23T21:25:00.851Z,20.40
2022-08-23T21:28:04.430Z,20.35
2022-08-23T21:31:08.881Z,20.27
2022-08-23T21:34:11.998Z,20.19
2022-08-23T21:37:13.829Z,20.12
2022-08-23T21:40:15.615Z,20.09
2022-08-23T21:43:18.230Z,20.07
2022-08-23T21:46:20.724Z,20.05
2022-08-23T21:49:23.293Z,20.02
2022-08-23T21:52:25.210Z,19.99
2022-08-23T21:55:35.248Z,19.97
2022-08-23T21:58:39.824Z,19.94
2022-08-23T22:01:42.884Z,19.92
2022-08-23T22:04:44.985Z,19.90
2022-08-23T22:07:47.263Z,19.88
2022-08-23T22:10:57.431Z,19.86
2022-08-23T22:14:00.377Z,19.87
2022-08-23T22:17:02.259Z,19.88
2022-08-23T22:20:06.729Z,19.89
2022-08-23T22:23:08.651Z,19.89
2022-08-23T22:26:12.295Z,19.89
2022-08-23T22:29:15.904Z,19.86
2022-08-23T22:32:17.643Z,19.84
2022-08-23T22:35:19.605Z,19.83
2022-08-23T22:38:21.359Z,19.81
2022-08-23T22:41:27.377Z,19.79
2022-08-23T22:44:29.229Z,19.77
2022-08-23T22:47:31.215Z,19.74
2022-08-23T22:50:32.918Z,19.70
2022-08-23T22:53:36.807Z,19.66
2022-08-23T22:56:41.908Z,19.62
2022-08-23T22:59:44.088Z,19.57
2022-08-23T23:02:46.019Z,19.53
2022-08-23T23:05:47.804Z,19.52
2022-08-23T23:08:50.205Z,19.51
2022-08-23T23:11:52.182Z,19.50
2022-08-23T23:14:53.970Z,19.48
2022-08-23T23:17:55.909Z,19.45
2022-08-23T23:21:00.318Z,19.42
2022-08-23T23:24:02.724Z,19.42
2022-08-23T23:27:05.361Z,19.39
2022-08-23T23:30:08.981Z,19.38
2022-08-23T23:33:11.549Z,19.37
2022-08-23T23:36:16.554Z,19.38
2022-08-23T23:39:19.457Z,19.36
2022-08-23T23:42:21.658Z,19.35
2022-08-23T23:45:23.514Z,19.34
2022-08-23T23:48:25.366Z,19.35
2022-08-23T23:51:29.353Z,19.37
2022-08-23T23:54:31.854Z,19.40
2022-08-23T23:57:33.725Z,19.43
